createdAt,value
2018-10-12T00:00:42.544Z,99.90
2018-10-12T00:03:11.285Z,99.90
2018-10-12T00:05:39.585Z,99.90
2018-10-12T00:08:07.857Z,99.90
2018-10-12T00:10:36.088Z,99.90
2018-10-12T00:13:04.328Z,99.90
2018-10-12T00:15:32.569Z,99.90
2018-10-12T00:18:00.845Z,99.90
2018-10-12T00:20:29.235Z,99.90
2018-10-12T00:22:57.470Z,99.90
2018-10-12T00:25:25.697Z,99.90
2018-10-12T00:27:53.944Z,99.90
2018-10-12T00:30:22.205Z,99.90
2018-10-12T00:32:50.433Z,99.90
2018-10-12T00:35:18.664Z,99.90
2018-10-12T00:37:46.922Z,99.90
2018-10-12T00:40:15.150Z,99.90
2018-10-12T00:42:43.441Z,99.90
2018-10-12T00:45:11.733Z,99.90
2018-10-12T00:47:39.984Z,99.90
2018-10-12T00:50:08.241Z,99.90
2018-10-12T00:52:36.480Z,99.90
2018-10-12T00:55:04.721Z,99.90
2018-10-12T00:57:32.953Z,99.90
2018-10-12T01:00:01.191Z,99.90
2018-10-12T01:02:29.412Z,99.90
2018-10-12T01:04:57.650Z,99.90
2018-10-12T01:07:25.862Z,99.90
2018-10-12T01:09:54.077Z,99.90
2018-10-12T01:12:27.701Z,99.90
2018-10-12T01:14:56.056Z,99.90
2018-10-12T01:17:24.298Z,99.90
2018-10-12T01:19:52.526Z,99.90
2018-10-12T01:22:20.724Z,99.90
2018-10-12T01:24:48.933Z,99.90
2018-10-12T01:27:17.141Z,99.90
2018-10-12T01:29:45.355Z,99.90
2018-10-12T01:32:17.789Z,99.90
2018-10-12T01:34:45.992Z,99.90
2018-10-12T01:37:14.221Z,99.90
2018-10-12T01:39:42.420Z,99.90
2018-10-12T01:42:10.715Z,99.90
2018-10-12T01:44:39.300Z,99.90
2018-10-12T01:47:07.512Z,99.90
2018-10-12T01:49:35.801Z,99.90
2018-10-12T01:52:04.053Z,99.90
2018-10-12T01:54:32.266Z,99.90
2018-10-12T01:57:00.546Z,99.90
2018-10-12T01:59:28.756Z,99.90
2018-10-12T02:01:56.996Z,99.90
2018-10-12T02:04:25.189Z,99.90
2018-10-12T02:06:53.385Z,99.90
2018-10-12T02:09:21.618Z,99.90
2018-10-12T02:11:49.828Z,99.90
2018-10-12T02:14:18.037Z,99.90
2018-10-12T02:16:46.426Z,99.90
2018-10-12T02:19:14.620Z,99.90
2018-10-12T02:21:42.868Z,99.90
2018-10-12T02:24:11.064Z,99.90
2018-10-12T02:26:39.389Z,99.90
2018-10-12T02:29:07.599Z,99.90
2018-10-12T02:31:35.791Z,99.90
2018-10-12T02:34:03.996Z,99.90
2018-10-12T02:36:32.211Z,99.90
2018-10-12T02:39:00.409Z,99.90
2018-10-12T02:41:28.610Z,99.90
2018-10-12T02:43:56.805Z,99.90
2018-10-12T02:46:25.011Z,99.90
2018-10-12T02:48:53.398Z,99.90
2018-10-12T02:51:21.737Z,99.90
2018-10-12T02:53:49.946Z,99.90
2018-10-12T02:56:22.149Z,99.90
2018-10-12T02:58:51.181Z,99.90
2018-10-12T03:01:20.307Z,99.90
2018-10-12T03:03:48.577Z,99.90
2018-10-12T03:06:16.840Z,99.90
2018-10-12T03:08:45.150Z,99.90
2018-10-12T03:11:13.353Z,99.90
2018-10-12T03:13:42.077Z,99.90
2018-10-12T03:16:10.474Z,99.90
2018-10-12T03:18:38.669Z,99.90
2018-10-12T03:21:06.925Z,99.90
2018-10-12T03:23:35.120Z,99.90
2018-10-12T03:26:03.329Z,99.90
2018-10-12T03:28:32.924Z,99.90
2018-10-12T03:31:01.769Z,99.90
2018-10-12T03:33:30.789Z,99.90
2018-10-12T03:35:59.017Z,99.90
2018-10-12T03:38:27.269Z,99.90
2018-10-12T03:40:55.464Z,99.90
2018-10-12T03:43:23.681Z,99.90
2018-10-12T03:45:52.002Z,99.90
2018-10-12T03:48:20.294Z,99.90
2018-10-12T03:50:48.573Z,99.90
2018-10-12T03:53:17.074Z,99.90
2018-10-12T03:55:45.318Z,99.90
2018-10-12T03:58:13.643Z,99.90
2018-10-12T04:00:41.979Z,99.90
2018-10-12T04:03:11.202Z,99.90
2018-10-12T04:05:39.498Z,99.90
2018-10-12T04:08:07.836Z,99.90
2018-10-12T04:10:36.068Z,99.90
2018-10-12T04:13:04.317Z,99.90
2018-10-12T04:15:32.965Z,99.90
2018-10-12T04:18:01.152Z,99.90
2018-10-12T04:20:29.348Z,99.90
2018-10-12T04:22:57.570Z,99.90
2018-10-12T04:25:25.840Z,99.90
2018-10-12T04:27:54.069Z,99.90
2018-10-12T04:30:23.058Z,99.90
2018-10-12T04:32:51.263Z,99.90
2018-10-12T04:35:19.473Z,99.90
2018-10-12T04:37:47.677Z,99.90
2018-10-12T04:41:25.885Z,99.90
2018-10-12T04:43:55.528Z,99.90
2018-10-12T04:46:28.459Z,99.90
2018-10-12T04:48:56.753Z,99.90
2018-10-12T04:52:00.228Z,99.90
2018-10-12T04:54:28.816Z,99.90
2018-10-12T04:56:57.028Z,99.90
2018-10-12T04:59:25.221Z,99.90
2018-10-12T05:01:53.429Z,99.90
2018-10-12T05:04:21.655Z,99.90
2018-10-12T05:06:49.988Z,99.90
2018-10-12T05:09:18.210Z,99.90
2018-10-12T05:11:46.442Z,99.90
2018-10-12T05:14:14.661Z,99.90
2018-10-12T05:16:42.876Z,99.90
2018-10-12T05:19:11.081Z,99.90
2018-10-12T05:21:39.282Z,99.90
2018-10-12T05:24:07.476Z,99.90
2018-10-12T05:26:35.681Z,99.90
2018-10-12T05:29:03.949Z,99.90
2018-10-12T05:31:32.145Z,99.90
2018-10-12T05:34:00.411Z,99.90
2018-10-12T05:36:28.816Z,99.90
2018-10-12T05:38:57.060Z,99.90
2018-10-12T05:41:25.258Z,99.90
2018-10-12T05:43:53.571Z,99.90
2018-10-12T05:46:21.674Z,99.90
2018-10-12T05:49:01.230Z,99.90
2018-10-12T05:51:29.624Z,99.90
2018-10-12T05:53:58.180Z,99.90
2018-10-12T05:56:28.544Z,99.90
2018-10-12T05:58:56.870Z,99.90
2018-10-12T06:01:25.225Z,99.90
2018-10-12T06:03:53.577Z,99.90
2018-10-12T06:06:21.834Z,99.90
2018-10-12T06:08:50.205Z,99.90
2018-10-12T06:11:18.650Z,99.90
2018-10-12T06:13:46.905Z,99.90
2018-10-12T06:16:15.504Z,99.90
2018-10-12T06:18:43.928Z,99.90
2018-10-12T06:21:12.260Z,99.90
2018-10-12T06:23:40.653Z,99.90
2018-10-12T06:26:08.853Z,99.90
2018-10-12T06:28:37.044Z,99.90
2018-10-12T06:31:05.249Z,99.90
2018-10-12T06:33:33.445Z,99.90
2018-10-12T06:36:01.646Z,99.90
2018-10-12T06:38:29.845Z,99.90
2018-10-12T06:40:58.056Z,99.90
2018-10-12T06:43:26.295Z,99.90
2018-10-12T06:45:54.541Z,99.90
2018-10-12T06:48:22.752Z,99.90
2018-10-12T06:50:50.969Z,99.90
2018-10-12T06:53:19.186Z,99.90
2018-10-12T06:55:47.417Z,99.90
2018-10-12T06:58:15.627Z,99.90
2018-10-12T07:00:43.870Z,99.90
2018-10-12T07:03:12.077Z,99.90
2018-10-12T07:05:40.332Z,99.90
2018-10-12T07:08:08.949Z,99.90
2018-10-12T07:10:37.177Z,99.90
2018-10-12T07:13:05.533Z,99.90
2018-10-12T07:15:33.729Z,99.90
2018-10-12T07:18:02.014Z,99.90
2018-10-12T07:20:30.218Z,99.90
2018-10-12T07:22:58.458Z,99.90
2018-10-12T07:25:26.678Z,99.90
2018-10-12T07:27:54.878Z,99.90
2018-10-12T07:30:23.159Z,99.90
2018-10-12T07:32:51.369Z,99.90
2018-10-12T07:35:19.660Z,94.70
2018-10-12T07:37:48.137Z,86.60
2018-10-12T07:40:16.284Z,70.50
2018-10-12T07:42:45.242Z,65.90
2018-10-12T07:45:13.545Z,60.70
2018-10-12T07:47:41.821Z,56.80
2018-10-12T07:50:10.037Z,54.50
2018-10-12T07:52:38.250Z,53.00
2018-10-12T07:55:06.474Z,53.00
2018-10-12T07:57:34.673Z,49.50
2018-10-12T08:00:02.943Z,46.60
2018-10-12T08:02:31.134Z,42.90
2018-10-12T08:04:59.349Z,39.80
2018-10-12T08:07:27.552Z,38.20
2018-10-12T08:09:55.764Z,35.60
2018-10-12T08:12:24.005Z,34.80
2018-10-12T08:14:52.205Z,33.30
2018-10-12T08:17:20.425Z,32.20
2018-10-12T08:19:48.721Z,33.90
2018-10-12T08:22:16.964Z,36.20
2018-10-12T08:24:45.172Z,33.30
2018-10-12T08:27:13.377Z,31.50
2018-10-12T08:29:41.741Z,30.20
2018-10-12T08:32:09.937Z,29.90
2018-10-12T08:34:38.235Z,29.80
2018-10-12T08:37:06.661Z,29.60
2018-10-12T08:39:34.906Z,29.10
2018-10-12T08:42:03.101Z,28.90
2018-10-12T08:44:31.310Z,28.70
2018-10-12T08:46:59.530Z,28.40
2018-10-12T08:49:27.728Z,27.80
2018-10-12T08:51:55.977Z,27.70
2018-10-12T08:54:24.251Z,27.20
2018-10-12T08:56:52.457Z,27.20
2018-10-12T08:59:20.659Z,26.30
2018-10-12T09:01:48.880Z,26.60
2018-10-12T09:04:17.085Z,26.40
2018-10-12T09:06:45.293Z,26.30
2018-10-12T09:09:13.505Z,25.40
2018-10-12T09:11:41.708Z,26.00
2018-10-12T09:14:10.120Z,26.00
2018-10-12T09:16:38.332Z,25.50
2018-10-12T09:19:06.746Z,25.80
2018-10-12T09:21:35.006Z,25.90
2018-10-12T09:24:03.184Z,25.50
2018-10-12T09:26:31.922Z,27.20
2018-10-12T09:29:00.292Z,25.40
2018-10-12T09:31:28.493Z,25.40
2018-10-12T09:33:56.700Z,24.70
2018-10-12T09:36:24.976Z,24.20
2018-10-12T09:38:53.137Z,23.70
2018-10-12T09:41:21.337Z,24.70
2018-10-12T09:43:49.536Z,27.60
2018-10-12T09:46:17.738Z,25.20
2018-10-12T09:48:45.936Z,34.90
2018-10-12T09:51:14.137Z,37.70
2018-10-12T09:53:42.345Z,36.60
2018-10-12T09:56:10.553Z,32.80
2018-10-12T09:58:38.768Z,33.00
2018-10-12T10:01:12.392Z,33.60
2018-10-12T10:03:45.988Z,31.90
2018-10-12T10:06:14.193Z,24.10
2018-10-12T10:08:42.429Z,25.50
2018-10-12T10:11:10.959Z,26.10
2018-10-12T10:13:39.229Z,26.20
2018-10-12T10:16:07.368Z,25.60
2018-10-12T10:18:35.571Z,25.20
2018-10-12T10:21:03.769Z,24.90
2018-10-12T10:23:31.981Z,24.70
2018-10-12T10:26:00.188Z,24.80
2018-10-12T10:28:28.412Z,24.30
2018-10-12T10:30:56.612Z,24.60
2018-10-12T10:33:24.825Z,24.30
2018-10-12T10:35:53.049Z,24.60
2018-10-12T10:38:21.280Z,25.40
2018-10-12T10:40:49.480Z,25.20
2018-10-12T10:43:17.680Z,25.00
2018-10-12T10:45:45.904Z,25.20
2018-10-12T10:48:14.113Z,25.80
2018-10-12T10:50:42.343Z,25.90
2018-10-12T10:53:10.599Z,25.90
2018-10-12T10:55:38.907Z,25.80
2018-10-12T10:58:07.133Z,27.40
2018-10-12T11:00:35.342Z,28.80
2018-10-12T11:03:03.557Z,29.60
2018-10-12T11:05:31.923Z,30.50
2018-10-12T11:08:00.094Z,30.80
2018-10-12T11:10:28.301Z,31.50
2018-10-12T11:12:56.703Z,31.20
2018-10-12T11:15:24.788Z,32.00
2018-10-12T11:17:53.026Z,32.20
2018-10-12T11:20:21.221Z,31.90
2018-10-12T11:22:49.421Z,31.10
2018-10-12T11:25:17.635Z,31.30
2018-10-12T11:27:45.836Z,31.60
2018-10-12T11:30:14.045Z,31.90
2018-10-12T11:32:42.306Z,32.20
2018-10-12T11:35:10.465Z,32.90
2018-10-12T11:37:38.669Z,34.90
2018-10-12T11:40:07.975Z,35.90
2018-10-12T11:42:47.417Z,35.40
2018-10-12T11:45:15.682Z,35.20
2018-10-12T11:47:43.848Z,35.20
2018-10-12T11:50:12.068Z,35.00
2018-10-12T11:52:40.289Z,36.80
2018-10-12T11:55:08.523Z,36.70
2018-10-12T11:57:36.804Z,36.60
2018-10-12T12:00:05.049Z,36.40
2018-10-12T12:02:33.258Z,36.60
2018-10-12T12:05:01.477Z,36.50
2018-10-12T12:07:29.737Z,36.00
2018-10-12T12:09:57.969Z,35.80
2018-10-12T12:12:26.197Z,35.30
2018-10-12T12:14:54.463Z,35.40
2018-10-12T12:17:22.698Z,34.90
2018-10-12T12:19:50.921Z,36.20
2018-10-12T12:22:19.142Z,36.60
2018-10-12T12:24:47.360Z,35.90
2018-10-12T12:27:15.585Z,37.20
2018-10-12T12:29:43.826Z,36.70
2018-10-12T12:32:12.060Z,36.80
2018-10-12T12:34:40.365Z,36.80
2018-10-12T12:37:08.519Z,36.40
2018-10-12T12:39:36.794Z,36.30
2018-10-12T12:42:05.031Z,36.50
2018-10-12T12:44:33.261Z,37.30
2018-10-12T12:47:01.637Z,36.60
2018-10-12T12:49:30.017Z,37.50
2018-10-12T12:51:58.096Z,37.90
2018-10-12T12:54:26.905Z,36.90
2018-10-12T12:56:55.141Z,37.00
2018-10-12T12:59:23.433Z,37.20
2018-10-12T13:01:51.740Z,37.40
2018-10-12T13:04:20.001Z,39.00
2018-10-12T13:06:48.259Z,37.60
2018-10-12T13:09:16.479Z,37.30
2018-10-12T13:11:44.779Z,37.10
2018-10-12T13:14:12.988Z,36.60
2018-10-12T13:16:41.436Z,37.30
2018-10-12T13:19:09.745Z,38.20
2018-10-12T13:21:38.043Z,38.80
2018-10-12T13:24:06.269Z,38.50
2018-10-12T13:26:34.496Z,37.80
2018-10-12T13:29:02.733Z,37.60
2018-10-12T13:31:30.981Z,38.20
2018-10-12T13:33:59.424Z,38.50
2018-10-12T13:36:27.692Z,39.60
2018-10-12T13:38:57.112Z,40.60
2018-10-12T13:41:25.400Z,40.40
2018-10-12T13:43:53.617Z,40.50
2018-10-12T13:46:21.952Z,42.20
2018-10-12T13:48:50.136Z,43.00
2018-10-12T13:51:18.498Z,43.50
2018-10-12T13:53:46.722Z,43.50
2018-10-12T13:56:15.033Z,44.70
2018-10-12T13:58:43.941Z,45.40
2018-10-12T14:01:12.178Z,46.00
2018-10-12T14:03:40.533Z,46.50
2018-10-12T14:06:08.781Z,46.70
2018-10-12T14:08:37.158Z,47.40
2018-10-12T14:11:05.353Z,47.70
2018-10-12T14:13:33.589Z,48.20
2018-10-12T14:16:01.790Z,48.80
2018-10-12T14:18:30.357Z,48.80
2018-10-12T14:20:59.856Z,48.40
2018-10-12T14:23:28.364Z,49.10
2018-10-12T14:25:56.768Z,48.20
2018-10-12T14:28:25.003Z,49.00
2018-10-12T14:30:53.349Z,49.00
2018-10-12T14:33:21.569Z,48.80
2018-10-12T14:35:50.021Z,49.20
2018-10-12T14:38:18.197Z,48.80
2018-10-12T14:40:46.421Z,49.00
2018-10-12T14:43:14.702Z,49.30
2018-10-12T14:45:43.569Z,49.10
2018-10-12T14:48:11.802Z,49.40
2018-10-12T14:50:40.067Z,50.00
2018-10-12T14:53:08.441Z,49.80
2018-10-12T14:55:36.613Z,50.00
2018-10-12T14:58:04.865Z,49.90
2018-10-12T15:00:33.094Z,50.70
2018-10-12T15:03:01.488Z,49.60
2018-10-12T15:05:29.823Z,49.90
2018-10-12T15:07:58.433Z,50.40
2018-10-12T15:10:26.671Z,50.50
2018-10-12T15:12:54.906Z,50.60
2018-10-12T15:15:24.430Z,51.40
2018-10-12T15:17:53.693Z,51.70
2018-10-12T15:20:22.019Z,52.00
2018-10-12T15:22:50.394Z,51.90
2018-10-12T15:25:18.837Z,52.10
2018-10-12T15:27:47.280Z,51.90
2018-10-12T15:30:16.775Z,52.30
2018-10-12T15:32:45.537Z,52.50
2018-10-12T15:35:13.871Z,52.80
2018-10-12T15:37:42.897Z,52.50
2018-10-12T15:40:11.113Z,52.80
2018-10-12T15:42:39.696Z,53.00
2018-10-12T15:45:07.997Z,54.10
2018-10-12T15:47:36.306Z,55.00
2018-10-12T15:50:04.997Z,54.70
2018-10-12T15:52:34.011Z,54.90
2018-10-12T15:55:02.659Z,55.30
2018-10-12T15:57:31.790Z,56.90
2018-10-12T15:59:59.964Z,57.00
2018-10-12T16:02:28.189Z,58.70
2018-10-12T16:04:56.461Z,60.40
2018-10-12T16:07:24.681Z,62.20
2018-10-12T16:09:53.678Z,64.20
2018-10-12T16:12:22.574Z,66.60
2018-10-12T16:14:50.855Z,71.00
2018-10-12T16:17:19.007Z,75.00
2018-10-12T16:19:47.218Z,80.80
2018-10-12T16:22:15.413Z,88.60
2018-10-12T16:26:50.083Z,93.00
2018-10-12T16:29:18.293Z,98.30
2018-10-12T16:31:46.516Z,99.90
2018-10-12T16:34:14.747Z,99.90
2018-10-12T16:36:43.633Z,99.90
2018-10-12T16:39:11.860Z,99.90
2018-10-12T16:41:40.553Z,99.90
2018-10-12T16:44:09.138Z,99.90
2018-10-12T16:46:37.368Z,99.90
2018-10-12T16:49:05.942Z,99.90
2018-10-12T16:51:34.157Z,99.90
2018-10-12T16:54:02.429Z,99.90
2018-10-12T16:56:30.658Z,99.90
2018-10-12T16:58:58.873Z,99.90
2018-10-12T17:01:27.110Z,99.90
2018-10-12T17:03:55.331Z,99.90
2018-10-12T17:08:58.191Z,99.90
2018-10-12T17:11:26.475Z,99.90
2018-10-12T17:13:54.727Z,99.90
2018-10-12T17:16:22.967Z,99.90
2018-10-12T17:18:52.021Z,99.90
2018-10-12T17:21:20.278Z,99.90
2018-10-12T17:23:48.665Z,99.90
2018-10-12T17:26:16.961Z,99.90
2018-10-12T17:28:45.210Z,99.90
2018-10-12T17:31:13.448Z,99.90
2018-10-12T17:33:41.703Z,99.90
2018-10-12T17:36:10.081Z,99.90
2018-10-12T17:38:38.313Z,99.90
2018-10-12T17:41:16.017Z,99.90
2018-10-12T17:43:44.579Z,99.90
2018-10-12T17:46:12.954Z,99.90
2018-10-12T17:48:41.268Z,99.90
2018-10-12T17:51:09.649Z,99.90
2018-10-12T17:53:38.060Z,99.90
2018-10-12T17:56:06.541Z,99.90
2018-10-12T17:58:35.031Z,99.90
2018-10-12T18:01:03.697Z,99.90
2018-10-12T18:03:32.129Z,99.90
2018-10-12T18:06:00.886Z,99.90
2018-10-12T18:08:29.159Z,99.90
2018-10-12T18:10:57.386Z,99.90
2018-10-12T18:13:25.640Z,99.90
2018-10-12T18:15:53.854Z,99.90
2018-10-12T18:18:22.105Z,99.90
2018-10-12T18:20:50.432Z,99.90
2018-10-12T18:23:18.645Z,99.90
2018-10-12T18:25:46.885Z,99.90
2018-10-12T18:28:15.110Z,99.90
2018-10-12T18:30:43.353Z,99.90
2018-10-12T18:33:11.581Z,99.90
2018-10-12T18:35:39.872Z,99.90
2018-10-12T18:38:08.394Z,99.90
2018-10-12T18:40:36.640Z,99.90
2018-10-12T18:43:04.884Z,99.90
2018-10-12T18:45:33.106Z,99.90
2018-10-12T18:48:01.366Z,99.90
2018-10-12T18:50:29.620Z,99.90
2018-10-12T18:52:57.816Z,99.90
2018-10-12T18:55:26.035Z,99.90
2018-10-12T18:57:54.254Z,99.90
2018-10-12T19:00:22.573Z,99.90
2018-10-12T19:02:50.832Z,99.90
2018-10-12T19:05:19.065Z,99.90
2018-10-12T19:07:47.322Z,99.90
2018-10-12T19:10:16.523Z,99.90
2018-10-12T19:12:44.862Z,99.90
2018-10-12T19:15:13.932Z,99.90
2018-10-12T19:17:42.203Z,99.90
2018-10-12T19:20:10.504Z,99.90
2018-10-12T19:22:38.767Z,99.90
2018-10-12T19:25:07.047Z,99.90
2018-10-12T19:27:35.317Z,99.90
2018-10-12T19:30:05.193Z,99.90
2018-10-12T19:32:33.642Z,99.90
2018-10-12T19:35:02.363Z,99.90
2018-10-12T19:37:30.645Z,99.90
2018-10-12T19:39:58.880Z,99.90
2018-10-12T19:42:27.178Z,99.90
2018-10-12T19:44:55.430Z,99.90
2018-10-12T19:47:23.696Z,99.90
2018-10-12T19:49:51.977Z,99.90
2018-10-12T19:52:20.255Z,99.90
2018-10-12T19:54:48.485Z,99.90
2018-10-12T19:57:16.772Z,99.90
2018-10-12T19:59:45.049Z,99.90
2018-10-12T20:02:13.379Z,99.90
2018-10-12T20:04:41.670Z,99.90
2018-10-12T20:07:09.916Z,99.90
2018-10-12T20:09:38.171Z,99.90
2018-10-12T20:12:07.517Z,99.90
2018-10-12T20:14:35.765Z,99.90
2018-10-12T20:17:04.075Z,99.90
2018-10-12T20:19:32.313Z,99.90
2018-10-12T20:22:00.721Z,99.90
2018-10-12T20:24:28.982Z,99.90
2018-10-12T20:26:57.254Z,99.90
2018-10-12T20:29:25.531Z,99.90
2018-10-12T20:31:53.773Z,99.90
2018-10-12T20:34:22.032Z,99.90
2018-10-12T20:36:50.290Z,99.90
2018-10-12T20:39:18.542Z,99.90
2018-10-12T20:41:46.837Z,99.90
2018-10-12T20:44:15.075Z,99.90
2018-10-12T20:46:43.317Z,99.90
2018-10-12T20:49:11.545Z,99.90
2018-10-12T20:51:39.796Z,99.90
2018-10-12T20:54:08.049Z,99.90
2018-10-12T20:56:36.549Z,99.90
2018-10-12T20:59:04.760Z,99.90
2018-10-12T21:01:32.994Z,99.90
2018-10-12T21:04:01.377Z,99.90
2018-10-12T21:06:29.869Z,99.90
2018-10-12T21:08:58.116Z,99.90
2018-10-12T21:11:26.366Z,99.90
2018-10-12T21:13:54.596Z,99.90
2018-10-12T21:16:22.849Z,99.90
2018-10-12T21:18:51.089Z,99.90
2018-10-12T21:21:19.322Z,99.90
2018-10-12T21:23:47.569Z,99.90
2018-10-12T21:26:15.832Z,99.90
2018-10-12T21:28:44.057Z,99.90
2018-10-12T21:31:12.309Z,99.90
2018-10-12T21:33:40.546Z,99.90
2018-10-12T21:36:08.937Z,99.90
2018-10-12T21:38:37.165Z,99.90
2018-10-12T21:41:05.411Z,99.90
2018-10-12T21:43:33.630Z,99.90
2018-10-12T21:46:01.844Z,99.90
2018-10-12T21:48:30.089Z,99.90
2018-10-12T21:50:58.313Z,99.90
2018-10-12T21:53:26.536Z,99.90
2018-10-12T21:55:54.770Z,99.90
2018-10-12T21:58:23.017Z,99.90
2018-10-12T22:00:56.531Z,99.90
2018-10-12T22:03:24.780Z,99.90
2018-10-12T22:05:53.042Z,99.90
2018-10-12T22:08:26.657Z,99.90
2018-10-12T22:10:54.869Z,99.90
2018-10-12T22:13:23.087Z,99.90
2018-10-12T22:15:51.321Z,99.90
2018-10-12T22:18:19.533Z,99.90
2018-10-12T22:20:47.748Z,99.90
2018-10-12T22:23:15.949Z,99.90
2018-10-12T22:25:44.246Z,99.90
2018-10-12T22:28:12.369Z,99.90
2018-10-12T22:30:40.654Z,99.90
2018-10-12T22:33:09.020Z,99.90
2018-10-12T22:35:37.185Z,99.90
2018-10-12T22:38:05.464Z,99.90
2018-10-12T22:40:33.698Z,99.90
2018-10-12T22:43:01.920Z,99.90
2018-10-12T22:45:30.133Z,99.90
2018-10-12T22:47:58.337Z,99.90
2018-10-12T22:50:26.541Z,99.90
2018-10-12T22:52:54.745Z,99.90
2018-10-12T22:55:22.953Z,99.90
2018-10-12T22:57:55.390Z,99.90
2018-10-12T23:00:23.614Z,99.90
2018-10-12T23:02:51.822Z,99.90
2018-10-12T23:05:20.020Z,99.90
2018-10-12T23:07:48.234Z,99.90
2018-10-12T23:10:16.454Z,99.90
2018-10-12T23:12:44.717Z,99.90
2018-10-12T23:15:12.882Z,99.90
2018-10-12T23:17:41.096Z,99.90
2018-10-12T23:20:09.325Z,99.90
2018-10-12T23:22:37.525Z,99.90
2018-10-12T23:25:05.729Z,99.90
2018-10-12T23:27:34.073Z,99.90
2018-10-12T23:30:02.285Z,99.90
2018-10-12T23:32:30.492Z,99.90
2018-10-12T23:34:58.698Z,99.90
2018-10-12T23:37:26.900Z,99.90
2018-10-12T23:39:55.112Z,99.90
2018-10-12T23:42:23.308Z,99.90
2018-10-12T23:44:51.501Z,99.90
2018-10-12T23:47:19.772Z,99.90
2018-10-12T23:49:47.945Z,99.90
2018-10-12T23:52:16.161Z,99.90
2018-10-12T23:54:44.372Z,99.90
2018-10-12T23:57:12.584Z,99.90
2018-10-12T23:59:40.792Z,99.90
